Time;durP1;ratioP1;P1;durP2;ratioP2;P2;SDS_P1;SDS_P2;PMS_P1;PMS_P2;Temp;Humidity;BMP_temperature;BMP_pressure;BME280_temperature;BME280_humidity;BME280_pressure;Samples;Min_cycle;Max_cycle;Signal;HPM_P1;HPM_P2
2021/06/24 00:02:10;;;;;;;20.70;19.70;;;18.80;90.10;;;;;;4987766;28;20473;-80
2021/06/24 00:04:37;;;;;;;20.80;19.80;;;18.80;90.00;;;;;;4991798;28;20512;-80
2021/06/24 00:07:04;;;;;;;20.90;19.80;;;18.80;90.10;;;;;;5028627;28;20569;-80
2021/06/24 00:09:31;;;;;;;21.60;20.50;;;18.70;90.80;;;;;;4973267;28;20501;-79
2021/06/24 00:12:00;;;;;;;21.87;20.57;;;18.60;91.20;;;;;;4988576;28;20459;-80
2021/06/24 00:14:26;;;;;;;21.60;20.37;;;18.60;91.50;;;;;;5019465;28;20522;-80
2021/06/24 00:16:53;;;;;;;20.97;19.87;;;18.60;91.30;;;;;;4977884;28;20546;-80
2021/06/24 00:19:20;;;;;;;21.13;20.03;;;18.60;91.00;;;;;;5002040;28;20516;-80
2021/06/24 00:21:47;;;;;;;21.47;20.30;;;18.60;91.10;;;;;;4975208;28;20545;-80
2021/06/24 00:24:14;;;;;;;21.77;20.57;;;18.60;90.70;;;;;;4975189;28;20503;-80
2021/06/24 00:26:41;;;;;;;21.13;20.03;;;18.60;90.40;;;;;;4992152;28;20455;-80
2021/06/24 00:29:10;;;;;;;21.40;20.10;;;18.60;90.20;;;;;;4983585;28;20462;-80
2021/06/24 00:31:37;;;;;;;20.70;19.60;;;18.60;90.20;;;;;;5013146;28;20469;-80
2021/06/24 00:34:04;;;;;;;20.97;19.97;;;18.60;90.20;;;;;;5025572;28;20542;-79
2021/06/24 00:36:31;;;;;;;21.60;20.40;;;18.70;90.20;;;;;;4990276;28;20467;-79
2021/06/24 00:38:57;;;;;;;22.30;21.20;;;18.70;90.20;;;;;;5014343;28;20563;-79
2021/06/24 00:41:25;;;;;;;20.80;19.80;;;18.70;90.20;;;;;;5002846;28;20577;-80
2021/06/24 00:43:52;;;;;;;21.70;20.60;;;18.70;90.00;;;;;;4981609;28;20844;-79
2021/06/24 00:46:21;;;;;;;22.23;20.50;;;18.70;90.20;;;;;;5004768;28;20463;-80
2021/06/24 00:48:56;;;;;;;22.80;21.50;;;18.60;90.50;;;;;;5012206;28;20463;-79
2021/06/24 00:51:23;;;;;;;21.70;20.50;;;18.60;90.60;;;;;;4999189;28;20454;-79
2021/06/24 00:53:50;;;;;;;21.63;20.33;;;18.60;91.00;;;;;;4996978;28;20481;-79
2021/06/24 00:56:26;;;;;;;20.90;19.80;;;18.50;91.40;;;;;;4990968;28;20535;-79
2021/06/24 00:58:53;;;;;;;22.30;21.10;;;18.50;91.50;;;;;;5017457;28;20458;-80
2021/06/24 01:01:22;;;;;;;21.33;20.23;;;18.60;91.30;;;;;;4997470;28;20549;-79
2021/06/24 01:03:49;;;;;;;21.93;20.63;;;18.70;91.30;;;;;;5010660;28;20849;-79
2021/06/24 01:06:15;;;;;;;21.77;20.67;;;18.60;91.40;;;;;;5021295;28;20577;-80
2021/06/24 01:08:42;;;;;;;21.60;20.50;;;18.60;91.60;;;;;;4980987;28;20499;-80
2021/06/24 01:11:10;;;;;;;22.90;21.60;;;18.60;91.70;;;;;;5025866;28;20532;-80
2021/06/24 01:13:37;;;;;;;22.07;20.87;;;18.60;91.40;;;;;;4993791;28;20581;-80
2021/06/24 01:16:04;;;;;;;22.10;20.90;;;18.60;91.50;;;;;;5029713;28;20873;-80
2021/06/24 01:18:33;;;;;;;22.33;21.13;;;18.60;91.40;;;;;;5026340;28;20530;-80
2021/06/24 01:21:00;;;;;;;21.93;20.70;;;18.60;91.50;;;;;;4981861;28;20497;-80
2021/06/24 01:23:27;;;;;;;23.13;21.30;;;18.60;91.30;;;;;;5038543;28;20482;-79
2021/06/24 01:25:55;;;;;;;22.40;21.00;;;18.60;91.50;;;;;;5019623;28;20457;-80
2021/06/24 01:28:22;;;;;;;21.50;20.40;;;18.70;91.60;;;;;;4995369;28;20696;-80
2021/06/24 01:30:49;;;;;;;22.07;20.77;;;18.70;91.80;;;;;;4997665;28;20549;-79
2021/06/24 01:33:16;;;;;;;21.70;20.50;;;18.60;92.30;;;;;;4977956;28;20501;-80
2021/06/24 01:35:43;;;;;;;22.67;21.37;;;18.60;92.10;;;;;;4977785;28;21309;-80
2021/06/24 01:38:12;;;;;;;22.80;21.37;;;18.60;92.30;;;;;;4987262;28;20580;-79
2021/06/24 01:40:39;;;;;;;22.13;20.93;;;18.60;92.20;;;;;;5010607;28;20561;-79
2021/06/24 01:43:07;;;;;;;22.17;20.97;;;18.60;92.10;;;;;;4981648;28;20550;-80
2021/06/24 01:45:44;;;;;;;24.10;22.73;;;18.60;92.20;;;;;;4982556;28;20474;-80
2021/06/24 01:48:11;;;;;;;24.27;22.83;;;18.60;92.60;;;;;;4972459;28;20553;-80
2021/06/24 01:50:37;;;;;;;23.53;22.13;;;18.60;92.80;;;;;;5010609;28;20451;-80
2021/06/24 01:53:05;;;;;;;21.43;20.33;;;18.60;93.40;;;;;;5011613;28;20548;-80
2021/06/24 01:55:36;;;;;;;21.00;19.90;;;18.60;93.40;;;;;;4998095;28;20514;-80
2021/06/24 01:58:05;;;;;;;22.33;21.00;;;18.50;93.40;;;;;;5002243;28;20920;-80
2021/06/24 02:00:33;;;;;;;23.60;22.20;;;18.60;93.70;;;;;;4981545;28;20514;-81
2021/06/24 02:03:01;;;;;;;23.23;21.70;;;18.60;93.30;;;;;;4977180;28;20485;-80
2021/06/24 02:05:28;;;;;;;22.33;21.07;;;18.60;93.30;;;;;;4994387;28;20574;-81
2021/06/24 02:07:55;;;;;;;23.20;21.90;;;18.60;93.30;;;;;;4979965;28;20530;-80
2021/06/24 02:10:22;;;;;;;23.23;21.87;;;18.60;93.00;;;;;;5007126;28;20528;-80
2021/06/24 02:12:49;;;;;;;22.67;21.47;;;18.60;92.80;;;;;;5011236;28;20972;-80
2021/06/24 02:15:16;;;;;;;22.27;21.07;;;18.60;92.70;;;;;;4976121;28;20558;-80
2021/06/24 02:17:45;;;;;;;22.37;21.17;;;18.50;92.30;;;;;;4976169;28;20489;-80
2021/06/24 02:20:15;;;;;;;21.70;20.60;;;18.50;92.10;;;;;;4974153;28;20520;-80
2021/06/24 02:22:45;;;;;;;20.73;19.73;;;18.60;92.00;;;;;;5026938;28;20608;-80
2021/06/24 02:25:14;;;;;;;22.33;21.13;;;18.60;91.60;;;;;;5019786;28;20488;-80
2021/06/24 02:27:41;;;;;;;20.90;19.80;;;18.60;91.80;;;;;;5011421;28;20469;-80
2021/06/24 02:30:09;;;;;;;21.97;20.77;;;18.50;92.10;;;;;;4986173;28;20463;-81
2021/06/24 02:32:36;;;;;;;21.60;20.50;;;18.40;92.80;;;;;;4961922;28;20512;-80
2021/06/24 02:35:07;;;;;;;20.97;19.90;;;18.40;93.10;;;;;;4974377;28;20589;-80
2021/06/24 02:37:34;;;;;;;21.80;20.50;;;18.40;93.20;;;;;;4973473;28;20493;-80
2021/06/24 02:40:01;;;;;;;23.70;22.40;;;18.40;93.50;;;;;;4973581;28;20577;-80
2021/06/24 02:42:28;;;;;;;20.70;19.60;;;18.30;93.50;;;;;;4973040;28;20458;-80
2021/06/24 02:44:55;;;;;;;20.20;19.10;;;18.30;93.60;;;;;;4971518;28;20562;-80
2021/06/24 02:47:22;;;;;;;20.10;19.10;;;18.30;93.70;;;;;;4974692;28;20525;-80
2021/06/24 02:49:49;;;;;;;20.73;19.63;;;18.20;94.00;;;;;;4972324;28;20549;-80
2021/06/24 02:52:17;;;;;;;23.50;22.00;;;18.30;93.60;;;;;;4988582;28;20509;-80
2021/06/24 02:54:44;;;;;;;20.90;19.50;;;18.30;93.70;;;;;;4985833;28;20490;-79
2021/06/24 02:57:11;;;;;;;20.70;19.50;;;18.20;93.70;;;;;;4981930;28;20474;-80
2021/06/24 02:59:38;;;;;;;19.57;18.57;;;18.20;93.80;;;;;;5042703;28;20576;-80
2021/06/24 03:02:05;;;;;;;20.57;19.50;;;18.20;93.90;;;;;;5041598;28;20470;-80
2021/06/24 03:04:32;;;;;;;22.00;20.53;;;18.20;93.70;;;;;;5030708;28;20538;-80
2021/06/24 03:07:01;;;;;;;21.20;20.10;;;18.10;93.80;;;;;;4997615;28;20566;-80
2021/06/24 03:09:29;;;;;;;21.07;19.97;;;18.10;93.90;;;;;;5010834;28;20535;-80
2021/06/24 03:11:56;;;;;;;20.97;19.77;;;18.20;93.70;;;;;;4994439;28;20557;-81
2021/06/24 03:14:23;;;;;;;22.50;21.10;;;18.20;93.40;;;;;;4983346;28;20577;-80
2021/06/24 03:16:50;;;;;;;20.47;19.33;;;18.20;93.40;;;;;;5011617;28;20546;-80
2021/06/24 03:19:18;;;;;;;20.90;19.70;;;18.10;93.50;;;;;;4967381;28;20956;-80
2021/06/24 03:21:44;;;;;;;22.13;20.63;;;18.20;93.50;;;;;;4974196;28;20467;-80
2021/06/24 03:24:12;;;;;;;22.97;21.70;;;18.10;93.20;;;;;;4962899;28;20566;-80
2021/06/24 03:26:40;;;;;;;22.80;21.57;;;18.00;93.10;;;;;;4967972;28;20496;-80
2021/06/24 03:29:07;;;;;;;21.43;20.13;;;18.10;92.80;;;;;;5005253;28;20549;-80
2021/06/24 03:31:35;;;;;;;22.20;20.93;;;18.10;92.80;;;;;;5008982;28;20470;-80
2021/06/24 03:34:02;;;;;;;25.70;24.40;;;18.10;93.00;;;;;;4978123;28;20512;-80
2021/06/24 03:36:29;;;;;;;23.00;21.70;;;18.00;93.20;;;;;;4970250;28;20458;-80
2021/06/24 03:38:56;;;;;;;24.13;22.73;;;18.00;93.30;;;;;;4974047;28;20962;-80
2021/06/24 03:41:24;;;;;;;21.70;20.30;;;18.00;93.40;;;;;;4970317;28;20493;-80
2021/06/24 03:43:53;;;;;;;22.20;20.90;;;17.90;93.70;;;;;;4965672;28;20480;-80
2021/06/24 03:46:21;;;;;;;21.30;20.20;;;18.00;93.90;;;;;;4991720;28;20498;-80
2021/06/24 03:48:48;;;;;;;23.87;22.47;;;18.00;94.00;;;;;;4974383;28;20461;-80
2021/06/24 03:51:15;;;;;;;22.30;21.20;;;18.10;93.80;;;;;;4970614;28;20952;-80
2021/06/24 03:53:43;;;;;;;21.70;20.60;;;18.10;93.90;;;;;;4987225;28;22404;-80
2021/06/24 03:56:11;;;;;;;22.27;20.97;;;18.10;93.60;;;;;;5017462;28;20593;-80
2021/06/24 03:58:38;;;;;;;21.57;20.30;;;18.30;93.80;;;;;;4990246;28;20527;-80
2021/06/24 04:01:06;;;;;;;24.17;22.40;;;18.50;93.00;;;;;;5007006;28;20480;-81
2021/06/24 04:03:33;;;;;;;24.07;22.77;;;18.70;91.80;;;;;;4973107;28;20475;-80
2021/06/24 04:06:00;;;;;;;22.73;21.33;;;18.70;91.30;;;;;;4975635;28;20653;-80
2021/06/24 04:08:27;;;;;;;21.93;20.73;;;18.70;91.50;;;;;;5031242;28;20462;-80
2021/06/24 04:10:54;;;;;;;21.63;20.53;;;18.60;91.50;;;;;;5023630;28;20501;-80
2021/06/24 04:13:21;;;;;;;23.80;22.50;;;18.50;91.90;;;;;;4974070;28;21198;-80
2021/06/24 04:15:48;;;;;;;22.60;21.30;;;18.50;92.20;;;;;;4972518;28;20562;-80
2021/06/24 04:18:16;;;;;;;23.83;22.43;;;18.60;91.70;;;;;;4997302;28;20467;-76
2021/06/24 04:20:43;;;;;;;24.10;22.33;;;18.60;91.70;;;;;;4970132;28;20679;-79
2021/06/24 04:23:10;;;;;;;25.37;23.20;;;18.50;91.50;;;;;;5006561;28;20490;-79
2021/06/24 04:25:37;;;;;;;26.23;24.73;;;18.50;91.60;;;;;;5046766;28;20451;-79
2021/06/24 04:28:05;;;;;;;24.87;23.17;;;18.60;91.60;;;;;;4996343;28;20622;-79
2021/06/24 04:30:32;;;;;;;22.50;21.20;;;18.50;91.80;;;;;;5005737;28;20466;-79
2021/06/24 04:32:59;;;;;;;22.83;21.63;;;18.50;91.80;;;;;;4974259;28;20544;-79
2021/06/24 04:35:28;;;;;;;25.00;23.43;;;18.60;90.50;;;;;;4979391;28;20474;-80
2021/06/24 04:37:55;;;;;;;26.03;24.73;;;18.70;90.20;;;;;;4975559;28;20474;-80
2021/06/24 04:40:22;;;;;;;22.67;21.37;;;18.70;87.70;;;;;;4986663;28;20558;-79
2021/06/24 04:42:49;;;;;;;22.93;21.63;;;18.80;88.10;;;;;;5002174;28;20467;-79
2021/06/24 04:45:17;;;;;;;23.50;22.30;;;18.90;88.10;;;;;;5047278;28;20550;-80
2021/06/24 04:47:44;;;;;;;22.80;21.70;;;19.10;87.60;;;;;;4999469;28;20549;-80
2021/06/24 04:50:12;;;;;;;22.63;21.33;;;19.10;88.00;;;;;;4976603;28;20461;-79
2021/06/24 04:52:40;;;;;;;28.37;26.77;;;19.20;88.20;;;;;;4968403;28;20460;-80
2021/06/24 04:55:08;;;;;;;23.60;22.10;;;19.30;87.60;;;;;;4998983;28;20497;-80
2021/06/24 04:57:36;;;;;;;22.83;21.63;;;19.50;87.60;;;;;;4996127;28;20465;-79
2021/06/24 05:00:04;;;;;;;24.77;23.37;;;19.70;86.70;;;;;;4966653;28;20557;-78
2021/06/24 05:02:31;;;;;;;26.73;25.23;;;19.90;86.20;;;;;;4974611;28;20910;-78
2021/06/24 05:04:58;;;;;;;27.87;26.30;;;20.00;85.10;;;;;;5020050;28;20584;-76
2021/06/24 05:07:26;;;;;;;24.13;22.83;;;20.10;84.60;;;;;;4979755;28;20451;-79
2021/06/24 05:09:54;;;;;;;25.40;24.10;;;20.30;83.60;;;;;;4999844;28;20568;-78
2021/06/24 05:12:21;;;;;;;24.33;23.03;;;20.40;83.40;;;;;;4964485;28;20459;-77
2021/06/24 05:14:48;;;;;;;27.93;26.40;;;20.50;82.80;;;;;;4979433;28;20514;-76
2021/06/24 05:17:16;;;;;;;25.03;23.63;;;20.70;82.70;;;;;;4979110;28;20751;-78
2021/06/24 05:19:43;;;;;;;26.13;24.40;;;21.00;81.90;;;;;;4982301;28;20467;-79
2021/06/24 05:22:15;;;;;;;24.10;22.70;;;21.10;80.80;;;;;;4973585;28;21012;-78
2021/06/24 05:24:44;;;;;;;27.57;25.90;;;21.40;80.10;;;;;;4961896;28;20502;-77
2021/06/24 05:27:15;;;;;;;26.17;24.60;;;21.60;79.70;;;;;;4960026;28;20470;-81
2021/06/24 05:29:42;;;;;;;28.70;27.03;;;21.70;79.90;;;;;;4963565;28;20484;-78
2021/06/24 05:32:10;;;;;;;26.53;25.03;;;22.00;79.30;;;;;;4969375;28;20463;-81
2021/06/24 05:34:38;;;;;;;26.93;25.43;;;22.20;77.10;;;;;;4958865;28;20502;-78
2021/06/24 05:37:05;;;;;;;27.40;25.50;;;22.30;76.20;;;;;;4956954;28;20474;-78
2021/06/24 05:39:32;;;;;;;30.13;28.40;;;22.30;75.70;;;;;;4979056;28;20476;-79
2021/06/24 05:41:59;;;;;;;27.13;25.30;;;22.30;75.90;;;;;;4952562;28;20954;-79
2021/06/24 05:44:28;;;;;;;30.03;28.43;;;22.40;76.00;;;;;;4958651;28;20601;-78
2021/06/24 05:46:55;;;;;;;26.80;25.20;;;22.60;74.80;;;;;;4957298;28;20825;-78
2021/06/24 05:49:23;;;;;;;27.60;25.90;;;22.50;75.30;;;;;;4964628;28;20499;-78
2021/06/24 05:51:50;;;;;;;26.27;24.87;;;22.40;74.60;;;;;;4970283;28;20463;-78
2021/06/24 05:54:17;;;;;;;26.83;25.13;;;22.30;75.70;;;;;;5037116;28;20485;-80
2021/06/24 05:56:45;;;;;;;29.67;28.17;;;22.00;75.80;;;;;;4987319;28;20498;-78
2021/06/24 05:59:12;;;;;;;28.30;26.70;;;21.60;76.00;;;;;;5011067;28;20586;-77
2021/06/24 06:01:43;;;;;;;31.00;29.20;;;21.40;77.90;;;;;;4966603;28;20540;-77
2021/06/24 06:04:10;;;;;;;31.47;29.87;;;21.40;78.20;;;;;;5010872;28;20246;-76
2021/06/24 06:06:38;;;;;;;29.30;27.43;;;21.40;78.30;;;;;;5021131;28;21003;-76
2021/06/24 06:09:05;;;;;;;28.13;26.43;;;21.30;78.70;;;;;;5014951;28;20465;-74
2021/06/24 06:11:32;;;;;;;31.73;30.00;;;21.00;80.10;;;;;;4991690;28;21118;-76
2021/06/24 06:14:00;;;;;;;28.67;27.07;;;21.00;80.60;;;;;;5009915;28;20639;-77
2021/06/24 06:16:27;;;;;;;27.53;26.03;;;20.80;80.40;;;;;;4958812;28;20493;-75
2021/06/24 06:18:58;;;;;;;30.70;29.10;;;20.80;80.40;;;;;;4976923;28;20557;-76
2021/06/24 06:21:30;;;;;;;27.07;25.57;;;21.00;79.80;;;;;;4961740;28;20471;-75
2021/06/24 06:23:57;;;;;;;27.67;26.17;;;20.80;80.70;;;;;;4954166;28;21274;-75
2021/06/24 06:26:25;;;;;;;27.27;25.73;;;20.70;81.00;;;;;;4985285;28;20459;-77
2021/06/24 06:28:52;;;;;;;27.60;26.10;;;20.80;80.60;;;;;;4962858;28;20537;-75
2021/06/24 06:31:20;;;;;;;29.23;27.60;;;20.70;81.00;;;;;;4999489;28;20454;-77
2021/06/24 06:33:47;;;;;;;30.43;29.03;;;20.60;81.70;;;;;;4964454;28;20486;-75
2021/06/24 06:36:16;;;;;;;28.27;26.67;;;20.60;82.00;;;;;;5059669;28;20494;-75
2021/06/24 06:38:42;;;;;;;30.70;29.00;;;20.70;81.20;;;;;;4961499;28;20451;-75
2021/06/24 06:41:10;;;;;;;26.47;24.97;;;20.90;81.10;;;;;;4963228;28;20485;-73
2021/06/24 06:43:37;;;;;;;31.40;29.80;;;20.90;81.10;;;;;;4966279;28;20957;-76
2021/06/24 06:46:05;;;;;;;31.60;29.90;;;21.20;80.80;;;;;;4964678;28;20492;-74
2021/06/24 06:48:32;;;;;;;29.63;28.13;;;21.20;80.50;;;;;;4975346;28;20837;-74
2021/06/24 06:50:59;;;;;;;29.50;27.90;;;21.00;81.30;;;;;;4943784;28;20467;-74
2021/06/24 06:53:28;;;;;;;31.07;29.37;;;20.60;82.20;;;;;;4974201;28;20480;-74
2021/06/24 06:55:54;;;;;;;29.73;27.87;;;20.50;82.70;;;;;;4964054;28;20485;-73
2021/06/24 06:58:21;;;;;;;27.13;25.43;;;20.30;83.00;;;;;;4960397;28;20467;-73
2021/06/24 07:00:48;;;;;;;28.20;26.50;;;20.20;83.10;;;;;;4966711;28;20462;-74
2021/06/24 07:03:16;;;;;;;27.73;26.13;;;20.30;82.90;;;;;;4988296;28;20477;-74
2021/06/24 07:05:45;;;;;;;27.87;26.37;;;20.60;81.70;;;;;;5062683;28;20549;-74
2021/06/24 07:08:12;;;;;;;27.80;26.30;;;20.70;80.40;;;;;;5003526;28;20813;-75
2021/06/24 07:10:41;;;;;;;29.23;27.53;;;20.70;80.30;;;;;;4962577;28;20465;-73
2021/06/24 07:13:08;;;;;;;30.57;29.07;;;20.90;80.10;;;;;;4981331;28;21182;-75
2021/06/24 07:15:35;;;;;;;29.77;28.17;;;21.00;80.30;;;;;;4992488;28;20516;-75
2021/06/24 07:18:02;;;;;;;31.30;29.60;;;21.00;80.10;;;;;;4973984;28;20474;-76
2021/06/24 07:20:29;;;;;;;27.93;26.30;;;20.90;80.40;;;;;;4959837;28;20613;-76
2021/06/24 07:22:56;;;;;;;30.27;28.47;;;21.00;79.90;;;;;;4968509;28;20709;-76
2021/06/24 07:25:23;;;;;;;29.00;27.40;;;20.90;79.40;;;;;;4960259;28;20473;-75
2021/06/24 07:27:52;;;;;;;30.77;29.07;;;21.10;79.50;;;;;;4968754;28;20458;-75
2021/06/24 07:30:20;;;;;;;27.90;26.33;;;21.20;79.10;;;;;;5030609;28;20458;-76
2021/06/24 07:32:47;;;;;;;31.67;29.53;;;21.40;78.00;;;;;;4969330;28;20574;-76
2021/06/24 07:35:16;;;;;;;28.63;27.13;;;21.50;77.30;;;;;;4959293;28;20569;-76
2021/06/24 07:37:44;;;;;;;28.80;27.30;;;21.90;75.60;;;;;;4960740;28;20451;-76
2021/06/24 07:40:12;;;;;;;28.53;26.93;;;22.00;74.90;;;;;;4974010;28;20453;-76
2021/06/24 07:42:39;;;;;;;28.77;27.20;;;22.10;75.00;;;;;;4993517;28;20464;-77
2021/06/24 07:45:08;;;;;;;33.23;31.47;;;22.30;73.80;;;;;;5054951;28;20461;-77
2021/06/24 07:47:37;;;;;;;30.60;28.77;;;22.50;73.70;;;;;;4961599;28;20454;-75
2021/06/24 07:50:05;;;;;;;30.57;28.87;;;22.50;73.50;;;;;;4964232;28;20540;-76
2021/06/24 07:52:32;;;;;;;30.40;28.70;;;22.70;72.80;;;;;;5005736;28;20462;-75
2021/06/24 07:54:59;;;;;;;29.83;28.13;;;22.70;72.20;;;;;;5018651;28;20477;-75
2021/06/24 07:57:28;;;;;;;32.03;30.33;;;22.70;71.60;;;;;;4964211;28;20975;-75
2021/06/24 07:59:55;;;;;;;30.13;28.50;;;22.70;71.30;;;;;;5054974;28;20466;-75
2021/06/24 08:02:28;;;;;;;29.57;27.97;;;22.90;70.60;;;;;;4997561;28;20481;-75
2021/06/24 08:04:55;;;;;;;31.30;29.50;;;23.00;70.60;;;;;;5038055;28;21091;-75
2021/06/24 08:07:22;;;;;;;30.20;28.27;;;23.20;70.60;;;;;;4976560;28;20502;-75
2021/06/24 08:09:50;;;;;;;30.93;29.13;;;23.30;70.50;;;;;;4967636;28;20576;-74
2021/06/24 08:12:17;;;;;;;29.53;27.93;;;23.40;70.80;;;;;;4951375;28;20517;-75
2021/06/24 08:14:44;;;;;;;30.43;28.60;;;23.70;69.30;;;;;;4997737;28;20478;-75
2021/06/24 08:17:11;;;;;;;32.33;30.27;;;23.70;68.90;;;;;;4982515;28;20478;-75
2021/06/24 08:19:40;;;;;;;32.40;30.60;;;23.90;69.00;;;;;;4978645;28;20995;-76
2021/06/24 08:22:07;;;;;;;30.70;29.00;;;23.90;68.50;;;;;;4962240;28;20467;-76
2021/06/24 08:24:35;;;;;;;30.50;28.70;;;23.90;68.20;;;;;;4961019;28;20486;-76
2021/06/24 08:27:02;;;;;;;32.83;31.03;;;24.10;69.30;;;;;;4963480;28;20466;-76
2021/06/24 08:29:29;;;;;;;30.87;29.07;;;24.00;69.10;;;;;;4995018;28;20468;-76
2021/06/24 08:31:57;;;;;;;33.27;31.40;;;24.00;68.50;;;;;;4996496;28;20630;-76
2021/06/24 08:34:24;;;;;;;30.77;28.87;;;23.90;68.50;;;;;;4962439;28;20471;-76
2021/06/24 08:36:52;;;;;;;38.50;34.83;;;24.00;68.80;;;;;;4960863;28;20924;-76
2021/06/24 08:39:19;;;;;;;32.90;30.90;;;24.20;69.10;;;;;;4965377;28;20557;-77
2021/06/24 08:41:48;;;;;;;33.40;31.20;;;24.40;67.90;;;;;;5031381;28;20471;-76
2021/06/24 08:44:16;;;;;;;31.13;29.33;;;24.40;66.70;;;;;;4983882;28;20845;-75
2021/06/24 08:46:45;;;;;;;30.80;29.00;;;24.50;66.10;;;;;;4970863;28;20474;-75
2021/06/24 08:49:13;;;;;;;32.67;30.77;;;24.70;65.50;;;;;;4964145;28;20547;-83
2021/06/24 08:51:40;;;;;;;33.13;31.03;;;24.60;65.80;;;;;;4961273;28;20466;-76
2021/06/24 08:54:08;;;;;;;39.67;33.00;;;24.90;66.00;;;;;;5049116;28;20481;-76
2021/06/24 08:56:35;;;;;;;30.00;28.30;;;25.10;65.80;;;;;;4984817;28;20482;-79
2021/06/24 08:59:02;;;;;;;30.67;28.77;;;24.90;63.60;;;;;;4991541;28;20574;-79
2021/06/24 09:01:50;;;;;;;35.33;31.37;;;25.10;64.10;;;;;;4957337;28;20479;-78
2021/06/24 09:04:18;;;;;;;141.50;49.93;;;25.20;64.40;;;;;;4961864;28;20482;-79
2021/06/24 09:06:46;;;;;;;43.27;37.90;;;25.50;64.60;;;;;;4962182;28;20549;-76
2021/06/24 09:09:25;;;;;;;45.13;36.20;;;25.60;63.70;;;;;;4968810;28;20489;-76
2021/06/24 09:12:01;;;;;;;31.53;29.57;;;25.80;63.20;;;;;;4957676;28;20459;-77
2021/06/24 09:14:41;;;;;;;40.13;34.37;;;25.70;63.70;;;;;;4995750;28;20995;-76
2021/06/24 09:17:10;;;;;;;39.80;32.20;;;25.50;64.00;;;;;;4964922;28;20919;-77
2021/06/24 09:19:39;;;;;;;47.23;31.93;;;25.30;64.70;;;;;;4983297;28;20582;-77
2021/06/24 09:22:08;;;;;;;32.03;29.60;;;25.20;64.80;;;;;;4961732;28;21013;-77
2021/06/24 09:24:38;;;;;;;34.67;31.80;;;25.30;65.20;;;;;;4962018;28;20490;-79
2021/06/24 09:27:07;;;;;;;44.63;33.33;;;25.20;65.40;;;;;;4948644;28;20477;-77
2021/06/24 09:29:34;;;;;;;73.73;38.17;;;25.20;65.40;;;;;;4963670;28;20473;-77
2021/06/24 09:32:03;;;;;;;52.57;34.67;;;25.20;66.20;;;;;;4991082;28;20446;-77
2021/06/24 09:34:30;;;;;;;31.43;29.70;;;25.10;65.90;;;;;;4961278;28;20483;-77
2021/06/24 09:37:01;;;;;;;33.67;31.20;;;25.10;65.10;;;;;;4960441;28;21305;-78
2021/06/24 09:39:36;;;;;;;31.20;29.30;;;25.30;65.30;;;;;;5018835;28;20467;-80
2021/06/24 09:42:08;;;;;;;32.73;30.33;;;25.20;64.80;;;;;;4981899;28;20890;-78
2021/06/24 09:44:38;;;;;;;32.20;29.90;;;25.30;65.40;;;;;;5014028;28;20469;-77
2021/06/24 09:47:18;;;;;;;33.20;31.10;;;25.50;65.50;;;;;;5030717;28;20463;-77
2021/06/24 09:49:56;;;;;;;32.27;30.47;;;25.60;65.30;;;;;;4987109;28;20462;-77
2021/06/24 09:52:24;;;;;;;30.70;29.00;;;25.70;64.40;;;;;;4992400;28;20465;-77
2021/06/24 09:55:02;;;;;;;36.07;33.97;;;25.70;64.30;;;;;;4965462;28;20495;-77
2021/06/24 09:57:31;;;;;;;34.10;32.10;;;25.90;64.40;;;;;;4960994;28;20486;-77
2021/06/24 10:00:18;;;;;;;35.90;33.30;;;26.20;64.20;;;;;;5042904;28;20454;-77
2021/06/24 10:03:07;;;;;;;33.60;31.60;;;26.40;63.80;;;;;;4990431;28;20566;-77
2021/06/24 10:05:35;;;;;;;32.30;30.30;;;26.80;63.20;;;;;;4962371;28;20514;-77
2021/06/24 10:08:02;;;;;;;35.13;32.60;;;27.10;60.80;;;;;;4982111;28;20478;-77
2021/06/24 10:10:46;;;;;;;31.50;29.80;;;27.10;61.10;;;;;;5003566;28;21026;-77
2021/06/24 10:13:15;;;;;;;34.30;31.50;;;26.80;60.70;;;;;;4960655;28;21019;-78
2021/06/24 10:15:42;;;;;;;31.77;29.87;;;27.00;61.80;;;;;;5020521;28;20474;-77
2021/06/24 10:18:09;;;;;;;32.70;30.80;;;27.30;61.10;;;;;;4961433;28;20473;-80
2021/06/24 10:20:37;;;;;;;34.27;31.87;;;27.10;61.40;;;;;;4965798;28;20544;-79
2021/06/24 10:23:09;;;;;;;36.20;33.90;;;26.90;62.30;;;;;;4966720;28;21017;-79
2021/06/24 10:25:38;;;;;;;35.70;32.00;;;27.20;62.10;;;;;;4967644;28;20475;-78
2021/06/24 10:28:06;;;;;;;30.90;28.90;;;27.50;61.60;;;;;;4960511;28;20471;-79
2021/06/24 10:30:41;;;;;;;33.90;31.37;;;27.60;60.50;;;;;;4962003;28;20980;-78
2021/06/24 10:33:11;;;;;;;39.40;34.57;;;27.60;59.70;;;;;;5007189;28;20460;-78
2021/06/24 10:35:40;;;;;;;33.60;31.57;;;27.50;59.50;;;;;;5017589;28;20471;-78
2021/06/24 10:38:08;;;;;;;31.50;29.70;;;27.50;60.10;;;;;;4983775;28;20465;-78
2021/06/24 10:40:37;;;;;;;36.23;33.90;;;27.60;60.50;;;;;;4975829;28;20991;-79
2021/06/24 10:43:06;;;;;;;33.53;31.10;;;27.90;59.80;;;;;;4953013;28;20463;-77
2021/06/24 10:45:33;;;;;;;31.07;29.30;;;28.10;58.80;;;;;;4955951;28;20537;-77
2021/06/24 10:48:22;;;;;;;30.90;28.90;;;28.20;57.30;;;;;;4962555;28;20478;-77
2021/06/24 10:50:59;;;;;;;31.20;29.00;;;28.40;57.20;;;;;;4963045;28;20462;-78
2021/06/24 10:53:42;;;;;;;31.27;29.37;;;28.50;56.90;;;;;;4951046;28;20479;-76
2021/06/24 10:56:44;;;;;;;33.13;30.73;;;28.50;56.60;;;;;;4949460;28;20482;-79
2021/06/24 10:59:31;;;;;;;31.47;29.67;;;28.50;57.20;;;;;;4959219;28;20462;-79
2021/06/24 11:02:12;;;;;;;34.70;32.80;;;28.50;56.60;;;;;;4958202;28;20821;-79
2021/06/24 11:04:43;;;;;;;31.90;30.13;;;28.60;56.60;;;;;;4960969;28;20548;-79
2021/06/24 11:07:21;;;;;;;31.23;29.43;;;28.70;55.70;;;;;;4961110;28;20459;-79
2021/06/24 11:10:13;;;;;;;30.50;28.80;;;28.70;54.60;;;;;;4963913;28;20516;-79
2021/06/24 11:12:55;;;;;;;29.70;28.10;;;28.60;55.00;;;;;;4965669;28;20469;-79
2021/06/24 11:15:45;;;;;;;29.30;27.70;;;28.50;54.30;;;;;;4978966;28;20484;-79
2021/06/24 11:18:57;;;;;;;32.30;30.50;;;28.30;53.70;;;;;;4965062;28;20463;-79
2021/06/24 11:21:54;;;;;;;30.27;28.57;;;28.30;54.60;;;;;;4955559;28;20451;-79
2021/06/24 11:24:30;;;;;;;29.30;27.70;;;28.20;54.70;;;;;;4964088;28;20548;-78
2021/06/24 11:26:59;;;;;;;29.20;27.60;;;28.10;54.70;;;;;;4962757;28;20473;-78
2021/06/24 11:29:41;;;;;;;32.30;30.50;;;27.80;55.80;;;;;;4964503;28;20455;-78
2021/06/24 11:32:15;;;;;;;32.00;30.20;;;27.80;55.60;;;;;;4963140;28;20975;-78
2021/06/24 11:37:30;;;;;;;29.57;27.97;;;28.00;55.10;;;;;;4960653;28;20508;-79
2021/06/24 11:39:59;;;;;;;29.73;28.13;;;28.00;54.40;;;;;;4972478;28;20457;-79
2021/06/24 11:42:31;;;;;;;32.33;30.40;;;28.00;53.30;;;;;;4974353;28;20467;-79
2021/06/24 11:44:58;;;;;;;32.20;30.40;;;27.90;54.10;;;;;;4965834;28;20474;-80
2021/06/24 11:47:27;;;;;;;29.40;27.80;;;27.90;54.10;;;;;;4963826;28;20956;-79
2021/06/24 12:04:01;;;;;;;31.80;29.90;;;28.00;55.10;;;;;;5000194;28;20466;-77
2021/06/24 12:06:41;;;;;;;33.37;31.53;;;28.20;54.60;;;;;;4962571;28;20956;-76
2021/06/24 12:09:08;;;;;;;30.47;28.77;;;28.10;54.40;;;;;;4951505;28;20985;-78
2021/06/24 12:11:39;;;;;;;31.60;29.70;;;27.90;54.90;;;;;;4959344;28;20447;-78
2021/06/24 12:14:16;;;;;;;30.63;28.80;;;27.80;55.10;;;;;;4952554;28;20583;-77
2021/06/24 12:17:08;;;;;;;29.93;28.10;;;27.50;55.70;;;;;;4961964;28;20478;-78
2021/06/24 12:19:52;;;;;;;30.33;28.73;;;27.30;55.80;;;;;;4964515;28;20465;-78
2021/06/24 12:22:22;;;;;;;29.60;28.00;;;27.30;56.50;;;;;;4963898;28;20490;-78
2021/06/24 12:24:49;;;;;;;30.87;28.97;;;27.30;55.90;;;;;;4962859;28;20486;-78
2021/06/24 12:27:25;;;;;;;29.77;28.07;;;27.50;55.80;;;;;;4963107;28;20457;-78
2021/06/24 12:29:54;;;;;;;32.60;30.90;;;27.70;54.00;;;;;;4945666;29;20463;-78
2021/06/24 12:32:22;;;;;;;31.90;30.13;;;27.90;54.00;;;;;;4960313;28;20477;-78
2021/06/24 12:34:51;;;;;;;28.67;27.10;;;28.20;53.20;;;;;;4969932;28;21283;-78
2021/06/24 12:37:35;;;;;;;33.77;31.77;;;28.20;52.00;;;;;;4962952;28;20487;-78
2021/06/24 12:40:06;;;;;;;35.73;33.93;;;28.50;51.00;;;;;;4967032;28;20453;-78
2021/06/24 12:42:42;;;;;;;29.20;27.50;;;28.80;50.80;;;;;;4965636;28;20466;-78
2021/06/24 12:45:10;;;;;;;33.17;31.17;;;29.10;49.40;;;;;;4969399;28;20588;-78
2021/06/24 12:47:41;;;;;;;29.40;27.60;;;29.40;49.80;;;;;;4966674;28;20523;-78
2021/06/24 12:50:21;;;;;;;33.60;31.67;;;29.70;48.40;;;;;;4964802;28;20462;-78
2021/06/24 12:52:51;;;;;;;28.60;27.00;;;29.90;47.50;;;;;;4962914;28;20532;-78
2021/06/24 12:55:42;;;;;;;32.50;30.63;;;30.10;46.90;;;;;;4964166;28;20490;-78